sensor_id;sensor_type;location;lat;lon;timestamp;temperature;humidity
30288;DHT22;17103;48.316;11.558;2023-03-01T00:01:27;7.40;35.00
30288;DHT22;17103;48.316;11.558;2023-03-01T00:03:54;7.40;35.00
30288;DHT22;17103;48.316;11.558;2023-03-01T00:06:22;7.40;35.00
30288;DHT22;17103;48.316;11.558;2023-03-01T00:08:48;7.40;35.10
30288;DHT22;17103;48.316;11.558;2023-03-01T00:13:48;7.40;35.20
30288;DHT22;17103;48.316;11.558;2023-03-01T00:16:25;7.40;35.10
30288;DHT22;17103;48.316;11.558;2023-03-01T00:18:51;7.30;35.10
30288;DHT22;17103;48.316;11.558;2023-03-01T00:21:20;7.30;35.10
30288;DHT22;17103;48.316;11.558;2023-03-01T00:23:45;7.30;35.10
30288;DHT22;17103;48.316;11.558;2023-03-01T00:26:13;7.30;35.00
30288;DHT22;17103;48.316;11.558;2023-03-01T00:28:39;7.30;35.00
30288;DHT22;17103;48.316;11.558;2023-03-01T00:31:10;7.30;35.00
30288;DHT22;17103;48.316;11.558;2023-03-01T00:33:36;7.30;35.00
30288;DHT22;17103;48.316;11.558;2023-03-01T00:36:03;7.30;35.00
30288;DHT22;17103;48.316;11.558;2023-03-01T00:38:30;7.30;35.00
30288;DHT22;17103;48.316;11.558;2023-03-01T00:40:55;7.30;35.10
30288;DHT22;17103;48.316;11.558;2023-03-01T00:43:27;7.30;35.10
30288;DHT22;17103;48.316;11.558;2023-03-01T00:45:53;7.30;35.60
30288;DHT22;17103;48.316;11.558;2023-03-01T00:48:18;7.30;35.10
30288;DHT22;17103;48.316;11.558;2023-03-01T00:50:44;7.30;35.10
30288;DHT22;17103;48.316;11.558;2023-03-01T00:53:10;7.30;35.20
30288;DHT22;17103;48.316;11.558;2023-03-01T00:55:36;7.30;35.20
30288;DHT22;17103;48.316;11.558;2023-03-01T00:58:02;7.30;35.20
30288;DHT22;17103;48.316;11.558;2023-03-01T01:00:28;7.30;35.20
30288;DHT22;17103;48.316;11.558;2023-03-01T01:02:53;7.30;35.20
30288;DHT22;17103;48.316;11.558;2023-03-01T01:05:19;7.30;35.20
30288;DHT22;17103;48.316;11.558;2023-03-01T01:07:47;7.30;35.30
30288;DHT22;17103;48.316;11.558;2023-03-01T01:10:13;7.30;35.30
30288;DHT22;17103;48.316;11.558;2023-03-01T01:12:43;7.20;35.20
30288;DHT22;17103;48.316;11.558;2023-03-01T01:15:09;7.20;35.20
30288;DHT22;17103;48.316;11.558;2023-03-01T01:17:38;7.20;35.20
30288;DHT22;17103;48.316;11.558;2023-03-01T01:20:04;7.20;35.20
30288;DHT22;17103;48.316;11.558;2023-03-01T01:22:30;7.20;35.20
30288;DHT22;17103;48.316;11.558;2023-03-01T01:24:55;7.20;35.30
30288;DHT22;17103;48.316;11.558;2023-03-01T01:27:21;7.20;35.30
30288;DHT22;17103;48.316;11.558;2023-03-01T01:29:47;7.20;35.40
30288;DHT22;17103;48.316;11.558;2023-03-01T01:32:12;7.20;36.90
30288;DHT22;17103;48.316;11.558;2023-03-01T01:34:39;7.20;39.20
30288;DHT22;17103;48.316;11.558;2023-03-01T01:37:05;7.30;40.30
30288;DHT22;17103;48.316;11.558;2023-03-01T01:39:34;7.50;40.30
30288;DHT22;17103;48.316;11.558;2023-03-01T01:42:00;7.70;40.10
30288;DHT22;17103;48.316;11.558;2023-03-01T01:44:27;7.90;39.70
30288;DHT22;17103;48.316;11.558;2023-03-01T01:46:57;8.20;39.40
30288;DHT22;17103;48.316;11.558;2023-03-01T01:49:42;8.50;39.10
30288;DHT22;17103;48.316;11.558;2023-03-01T01:57:37;9.30;37.80
30288;DHT22;17103;48.316;11.558;2023-03-01T02:00:16;9.50;37.30
30288;DHT22;17103;48.316;11.558;2023-03-01T02:02:44;9.70;36.90
30288;DHT22;17103;48.316;11.558;2023-03-01T02:05:20;9.90;36.70
30288;DHT22;17103;48.316;11.558;2023-03-01T02:07:48;10.10;35.60
30288;DHT22;17103;48.316;11.558;2023-03-01T02:10:15;10.30;35.30
30288;DHT22;17103;48.316;11.558;2023-03-01T02:12:41;10.40;35.10
30288;DHT22;17103;48.316;11.558;2023-03-01T02:15:07;10.60;34.90
30288;DHT22;17103;48.316;11.558;2023-03-01T02:17:33;10.70;34.70
30288;DHT22;17103;48.316;11.558;2023-03-01T02:22:47;11.00;34.10
30288;DHT22;17103;48.316;11.558;2023-03-01T02:30:42;11.30;33.60
30288;DHT22;17103;48.316;11.558;2023-03-01T02:33:29;11.40;33.70
30288;DHT22;17103;48.316;11.558;2023-03-01T02:36:00;11.50;33.60
30288;DHT22;17103;48.316;11.558;2023-03-01T02:38:28;11.60;33.30
30288;DHT22;17103;48.316;11.558;2023-03-01T02:40:54;11.60;33.20
30288;DHT22;17103;48.316;11.558;2023-03-01T02:43:25;11.70;33.00
30288;DHT22;17103;48.316;11.558;2023-03-01T02:45:56;11.80;32.90
30288;DHT22;17103;48.316;11.558;2023-03-01T02:48:25;11.80;32.70
30288;DHT22;17103;48.316;11.558;2023-03-01T02:51:12;11.90;32.70
30288;DHT22;17103;48.316;11.558;2023-03-01T02:56:11;12.00;32.50
30288;DHT22;17103;48.316;11.558;2023-03-01T02:58:44;12.00;32.40
30288;DHT22;17103;48.316;11.558;2023-03-01T03:01:13;12.00;32.30
30288;DHT22;17103;48.316;11.558;2023-03-01T03:03:41;12.10;32.20
30288;DHT22;17103;48.316;11.558;2023-03-01T03:06:06;12.50;32.40
30288;DHT22;17103;48.316;11.558;2023-03-01T03:08:32;12.10;31.90
30288;DHT22;17103;48.316;11.558;2023-03-01T03:10:58;12.50;31.90
30288;DHT22;17103;48.316;11.558;2023-03-01T03:13:24;12.30;31.80
30288;DHT22;17103;48.316;11.558;2023-03-01T03:15:56;12.10;31.70
30288;DHT22;17103;48.316;11.558;2023-03-01T03:18:28;12.10;31.60
30288;DHT22;17103;48.316;11.558;2023-03-01T03:20:53;12.30;31.60
30288;DHT22;17103;48.316;11.558;2023-03-01T03:23:21;12.20;31.60
30288;DHT22;17103;48.316;11.558;2023-03-01T03:25:49;12.10;31.40
30288;DHT22;17103;48.316;11.558;2023-03-01T03:28:15;12.20;31.50
30288;DHT22;17103;48.316;11.558;2023-03-01T03:30:41;12.40;31.60
30288;DHT22;17103;48.316;11.558;2023-03-01T03:33:08;12.50;31.50
30288;DHT22;17103;48.316;11.558;2023-03-01T03:35:39;12.40;31.40
30288;DHT22;17103;48.316;11.558;2023-03-01T03:38:08;12.30;31.10
30288;DHT22;17103;48.316;11.558;2023-03-01T03:40:43;12.40;31.10
30288;DHT22;17103;48.316;11.558;2023-03-01T03:43:11;12.30;31.00
30288;DHT22;17103;48.316;11.558;2023-03-01T03:45:37;12.30;30.90
30288;DHT22;17103;48.316;11.558;2023-03-01T03:48:05;12.30;30.80
30288;DHT22;17103;48.316;11.558;2023-03-01T03:50:31;12.30;30.60
30288;DHT22;17103;48.316;11.558;2023-03-01T03:53:00;12.30;30.60
30288;DHT22;17103;48.316;11.558;2023-03-01T03:55:26;12.30;30.50
30288;DHT22;17103;48.316;11.558;2023-03-01T03:57:57;12.30;30.40
30288;DHT22;17103;48.316;11.558;2023-03-01T04:00:23;12.70;30.80
30288;DHT22;17103;48.316;11.558;2023-03-01T04:02:50;12.30;30.40
30288;DHT22;17103;48.316;11.558;2023-03-01T04:05:18;12.30;30.30
30288;DHT22;17103;48.316;11.558;2023-03-01T04:07:44;12.20;30.20
30288;DHT22;17103;48.316;11.558;2023-03-01T04:10:16;12.20;30.20
30288;DHT22;17103;48.316;11.558;2023-03-01T04:12:42;12.20;30.10
30288;DHT22;17103;48.316;11.558;2023-03-01T04:15:09;12.40;30.30
30288;DHT22;17103;48.316;11.558;2023-03-01T04:17:46;12.20;30.10
30288;DHT22;17103;48.316;11.558;2023-03-01T04:20:17;12.20;30.00
30288;DHT22;17103;48.316;11.558;2023-03-01T04:22:43;12.20;30.00
30288;DHT22;17103;48.316;11.558;2023-03-01T04:25:13;12.30;30.00
30288;DHT22;17103;48.316;11.558;2023-03-01T04:27:40;12.10;29.90
30288;DHT22;17103;48.316;11.558;2023-03-01T04:30:06;12.10;29.90
30288;DHT22;17103;48.316;11.558;2023-03-01T04:32:32;12.10;30.00
30288;DHT22;17103;48.316;11.558;2023-03-01T04:34:58;12.30;30.00
30288;DHT22;17103;48.316;11.558;2023-03-01T04:37:24;12.00;29.90
30288;DHT22;17103;48.316;11.558;2023-03-01T04:39:50;12.10;29.70
30288;DHT22;17103;48.316;11.558;2023-03-01T04:42:16;12.00;29.30
30288;DHT22;17103;48.316;11.558;2023-03-01T04:44:43;11.90;28.90
30288;DHT22;17103;48.316;11.558;2023-03-01T04:47:09;11.80;28.70
30288;DHT22;17103;48.316;11.558;2023-03-01T04:49:34;11.50;28.50
30288;DHT22;17103;48.316;11.558;2023-03-01T04:52:00;11.30;28.40
30288;DHT22;17103;48.316;11.558;2023-03-01T04:54:34;11.10;28.40
30288;DHT22;17103;48.316;11.558;2023-03-01T04:57:00;10.80;28.40
30288;DHT22;17103;48.316;11.558;2023-03-01T04:59:27;10.60;28.30
30288;DHT22;17103;48.316;11.558;2023-03-01T05:01:54;10.30;28.40
30288;DHT22;17103;48.316;11.558;2023-03-01T05:04:23;10.10;28.50
30288;DHT22;17103;48.316;11.558;2023-03-01T05:06:50;9.80;29.20
30288;DHT22;17103;48.316;11.558;2023-03-01T05:09:16;9.60;29.40
30288;DHT22;17103;48.316;11.558;2023-03-01T05:11:41;9.40;29.50
30288;DHT22;17103;48.316;11.558;2023-03-01T05:14:08;9.20;29.60
30288;DHT22;17103;48.316;11.558;2023-03-01T05:16:35;9.00;29.70
30288;DHT22;17103;48.316;11.558;2023-03-01T05:19:02;8.70;29.80
30288;DHT22;17103;48.316;11.558;2023-03-01T05:21:37;8.60;29.90
30288;DHT22;17103;48.316;11.558;2023-03-01T05:24:23;8.40;30.00
30288;DHT22;17103;48.316;11.558;2023-03-01T05:26:50;8.20;30.00
30288;DHT22;17103;48.316;11.558;2023-03-01T05:29:21;8.10;30.20
30288;DHT22;17103;48.316;11.558;2023-03-01T05:32:00;7.90;30.30
30288;DHT22;17103;48.316;11.558;2023-03-01T05:34:31;7.80;30.50
30288;DHT22;17103;48.316;11.558;2023-03-01T05:36:57;7.60;30.50
30288;DHT22;17103;48.316;11.558;2023-03-01T05:39:25;7.50;30.70
30288;DHT22;17103;48.316;11.558;2023-03-01T05:41:58;7.40;30.90
30288;DHT22;17103;48.316;11.558;2023-03-01T05:44:25;7.30;31.10
30288;DHT22;17103;48.316;11.558;2023-03-01T05:46:51;7.20;31.10
30288;DHT22;17103;48.316;11.558;2023-03-01T05:49:17;7.10;31.30
30288;DHT22;17103;48.316;11.558;2023-03-01T05:51:47;7.00;31.40
30288;DHT22;17103;48.316;11.558;2023-03-01T05:54:13;6.90;31.60
30288;DHT22;17103;48.316;11.558;2023-03-01T05:56:38;6.80;31.60
30288;DHT22;17103;48.316;11.558;2023-03-01T05:59:05;6.80;31.70
30288;DHT22;17103;48.316;11.558;2023-03-01T06:01:32;6.70;31.90
30288;DHT22;17103;48.316;11.558;2023-03-01T06:03:58;6.60;32.00
30288;DHT22;17103;48.316;11.558;2023-03-01T06:06:24;6.60;32.10
30288;DHT22;17103;48.316;11.558;2023-03-01T06:08:50;6.50;32.10
30288;DHT22;17103;48.316;11.558;2023-03-01T06:11:16;6.50;32.20
30288;DHT22;17103;48.316;11.558;2023-03-01T06:13:43;6.40;32.30
30288;DHT22;17103;48.316;11.558;2023-03-01T06:16:09;6.40;32.90
30288;DHT22;17103;48.316;11.558;2023-03-01T06:18:35;6.30;32.50
30288;DHT22;17103;48.316;11.558;2023-03-01T06:21:01;6.30;32.50
30288;DHT22;17103;48.316;11.558;2023-03-01T06:23:26;6.30;32.60
30288;DHT22;17103;48.316;11.558;2023-03-01T06:25:52;6.20;32.60
30288;DHT22;17103;48.316;11.558;2023-03-01T06:28:18;6.20;32.70
30288;DHT22;17103;48.316;11.558;2023-03-01T06:30:44;6.20;32.80
30288;DHT22;17103;48.316;11.558;2023-03-01T06:33:09;6.20;32.80
30288;DHT22;17103;48.316;11.558;2023-03-01T06:35:35;6.10;32.80
30288;DHT22;17103;48.316;11.558;2023-03-01T06:38:02;6.10;32.90
30288;DHT22;17103;48.316;11.558;2023-03-01T06:40:29;6.10;33.10
30288;DHT22;17103;48.316;11.558;2023-03-01T06:42:55;6.10;33.10
30288;DHT22;17103;48.316;11.558;2023-03-01T06:45:21;6.00;33.10
30288;DHT22;17103;48.316;11.558;2023-03-01T06:47:47;6.00;33.10
30288;DHT22;17103;48.316;11.558;2023-03-01T06:50:14;6.00;33.20
30288;DHT22;17103;48.316;11.558;2023-03-01T06:52:41;6.00;33.30
30288;DHT22;17103;48.316;11.558;2023-03-01T06:55:09;6.00;33.30
30288;DHT22;17103;48.316;11.558;2023-03-01T06:57:34;6.00;33.40
30288;DHT22;17103;48.316;11.558;2023-03-01T07:00:00;6.00;33.50
30288;DHT22;17103;48.316;11.558;2023-03-01T07:02:26;6.00;33.50
30288;DHT22;17103;48.316;11.558;2023-03-01T07:04:53;6.00;33.50
30288;DHT22;17103;48.316;11.558;2023-03-01T07:07:19;5.90;33.50
30288;DHT22;17103;48.316;11.558;2023-03-01T07:09:45;5.90;33.50
30288;DHT22;17103;48.316;11.558;2023-03-01T07:12:11;5.90;33.50
30288;DHT22;17103;48.316;11.558;2023-03-01T07:14:37;5.90;33.60
30288;DHT22;17103;48.316;11.558;2023-03-01T07:17:03;5.90;33.70
30288;DHT22;17103;48.316;11.558;2023-03-01T07:19:28;5.90;33.70
30288;DHT22;17103;48.316;11.558;2023-03-01T07:21:54;5.90;33.70
30288;DHT22;17103;48.316;11.558;2023-03-01T07:24:21;5.90;33.80
30288;DHT22;17103;48.316;11.558;2023-03-01T07:26:51;5.90;33.80
30288;DHT22;17103;48.316;11.558;2023-03-01T07:29:19;5.90;33.90
30288;DHT22;17103;48.316;11.558;2023-03-01T07:31:44;5.90;33.90
30288;DHT22;17103;48.316;11.558;2023-03-01T07:34:11;5.90;33.90
30288;DHT22;17103;48.316;11.558;2023-03-01T07:36:37;6.00;34.00
30288;DHT22;17103;48.316;11.558;2023-03-01T07:39:04;6.00;34.00
30288;DHT22;17103;48.316;11.558;2023-03-01T07:41:31;6.00;33.90
30288;DHT22;17103;48.316;11.558;2023-03-01T07:43:57;6.00;33.90
30288;DHT22;17103;48.316;11.558;2023-03-01T07:46:22;6.00;34.00
30288;DHT22;17103;48.316;11.558;2023-03-01T07:48:48;6.00;33.90
30288;DHT22;17103;48.316;11.558;2023-03-01T07:51:14;6.00;34.00
30288;DHT22;17103;48.316;11.558;2023-03-01T07:53:39;6.10;34.10
30288;DHT22;17103;48.316;11.558;2023-03-01T07:56:11;6.10;34.10
30288;DHT22;17103;48.316;11.558;2023-03-01T07:58:39;6.10;34.10
30288;DHT22;17103;48.316;11.558;2023-03-01T08:01:07;6.10;34.10
30288;DHT22;17103;48.316;11.558;2023-03-01T08:03:33;6.10;34.10
30288;DHT22;17103;48.316;11.558;2023-03-01T08:06:01;6.10;34.10
30288;DHT22;17103;48.316;11.558;2023-03-01T08:08:27;6.10;34.20
30288;DHT22;17103;48.316;11.558;2023-03-01T08:10:58;6.10;34.20
30288;DHT22;17103;48.316;11.558;2023-03-01T08:13:29;6.20;34.40
30288;DHT22;17103;48.316;11.558;2023-03-01T08:16:01;6.20;34.40
30288;DHT22;17103;48.316;11.558;2023-03-01T08:18:27;6.20;34.30
30288;DHT22;17103;48.316;11.558;2023-03-01T08:20:53;6.20;34.50
30288;DHT22;17103;48.316;11.558;2023-03-01T08:23:18;6.30;34.30
30288;DHT22;17103;48.316;11.558;2023-03-01T08:25:44;6.30;34.30
30288;DHT22;17103;48.316;11.558;2023-03-01T08:28:10;6.30;34.40
30288;DHT22;17103;48.316;11.558;2023-03-01T08:30:35;6.30;34.30
30288;DHT22;17103;48.316;11.558;2023-03-01T08:33:01;6.30;34.30
30288;DHT22;17103;48.316;11.558;2023-03-01T08:35:26;6.40;34.30
30288;DHT22;17103;48.316;11.558;2023-03-01T08:37:52;6.40;34.30
30288;DHT22;17103;48.316;11.558;2023-03-01T08:40:18;6.40;34.20
30288;DHT22;17103;48.316;11.558;2023-03-01T08:42:43;6.40;34.10
30288;DHT22;17103;48.316;11.558;2023-03-01T08:45:10;6.50;34.20
30288;DHT22;17103;48.316;11.558;2023-03-01T08:47:36;6.50;34.10
30288;DHT22;17103;48.316;11.558;2023-03-01T08:50:02;6.50;34.10
30288;DHT22;17103;48.316;11.558;2023-03-01T08:52:28;6.60;34.30
30288;DHT22;17103;48.316;11.558;2023-03-01T08:54:55;6.60;34.30
30288;DHT22;17103;48.316;11.558;2023-03-01T08:57:22;6.60;34.40
30288;DHT22;17103;48.316;11.558;2023-03-01T08:59:48;6.70;34.50
30288;DHT22;17103;48.316;11.558;2023-03-01T09:02:18;6.80;34.60
30288;DHT22;17103;48.316;11.558;2023-03-01T09:04:44;6.80;34.70
30288;DHT22;17103;48.316;11.558;2023-03-01T09:07:10;7.00;34.70
30288;DHT22;17103;48.316;11.558;2023-03-01T09:09:36;7.00;34.70
30288;DHT22;17103;48.316;11.558;2023-03-01T09:12:03;7.10;34.70
30288;DHT22;17103;48.316;11.558;2023-03-01T09:14:29;7.20;34.70
30288;DHT22;17103;48.316;11.558;2023-03-01T09:16:56;7.30;34.70
30288;DHT22;17103;48.316;11.558;2023-03-01T09:19:21;7.30;34.50
30288;DHT22;17103;48.316;11.558;2023-03-01T09:21:47;7.40;34.50
30288;DHT22;17103;48.316;11.558;2023-03-01T09:24:19;7.50;34.40
30288;DHT22;17103;48.316;11.558;2023-03-01T09:26:46;7.50;34.30
30288;DHT22;17103;48.316;11.558;2023-03-01T09:29:12;7.60;34.40
30288;DHT22;17103;48.316;11.558;2023-03-01T09:31:38;7.70;34.50
30288;DHT22;17103;48.316;11.558;2023-03-01T09:34:04;7.80;34.60
30288;DHT22;17103;48.316;11.558;2023-03-01T09:36:30;7.80;34.40
30288;DHT22;17103;48.316;11.558;2023-03-01T09:38:57;7.90;34.40
30288;DHT22;17103;48.316;11.558;2023-03-01T09:41:49;8.00;34.50
30288;DHT22;17103;48.316;11.558;2023-03-01T09:46:55;8.20;34.30
30288;DHT22;17103;48.316;11.558;2023-03-01T09:49:28;8.30;34.30
30288;DHT22;17103;48.316;11.558;2023-03-01T09:52:00;8.40;34.10
30288;DHT22;17103;48.316;11.558;2023-03-01T09:54:26;8.50;34.10
30288;DHT22;17103;48.316;11.558;2023-03-01T09:59:30;8.60;34.00
30288;DHT22;17103;48.316;11.558;2023-03-01T10:04:48;8.80;33.90
30288;DHT22;17103;48.316;11.558;2023-03-01T10:09:58;8.90;34.00
30288;DHT22;17103;48.316;11.558;2023-03-01T10:12:35;9.10;34.10
30288;DHT22;17103;48.316;11.558;2023-03-01T10:15:09;9.20;34.10
30288;DHT22;17103;48.316;11.558;2023-03-01T10:20:41;9.40;34.30
30288;DHT22;17103;48.316;11.558;2023-03-01T10:23:08;9.50;34.30
30288;DHT22;17103;48.316;11.558;2023-03-01T10:31:01;9.90;34.30
30288;DHT22;17103;48.316;11.558;2023-03-01T10:33:29;10.00;33.40
30288;DHT22;17103;48.316;11.558;2023-03-01T10:35:58;10.30;33.90
30288;DHT22;17103;48.316;11.558;2023-03-01T10:38:25;10.20;33.20
30288;DHT22;17103;48.316;11.558;2023-03-01T10:43:23;10.40;33.20
30288;DHT22;17103;48.316;11.558;2023-03-01T10:45:50;10.50;33.20
30288;DHT22;17103;48.316;11.558;2023-03-01T10:48:23;10.60;33.00
30288;DHT22;17103;48.316;11.558;2023-03-01T10:51:14;10.70;32.90
30288;DHT22;17103;48.316;11.558;2023-03-01T10:53:48;10.80;32.90
30288;DHT22;17103;48.316;11.558;2023-03-01T10:56:16;10.90;32.80
30288;DHT22;17103;48.316;11.558;2023-03-01T10:59:04;11.00;32.90
30288;DHT22;17103;48.316;11.558;2023-03-01T11:01:45;11.10;32.40
30288;DHT22;17103;48.316;11.558;2023-03-01T11:04:23;11.20;32.70
30288;DHT22;17103;48.316;11.558;2023-03-01T11:06:59;11.20;32.70
30288;DHT22;17103;48.316;11.558;2023-03-01T11:09:25;11.30;32.60
30288;DHT22;17103;48.316;11.558;2023-03-01T11:11:56;11.40;32.70
30288;DHT22;17103;48.316;11.558;2023-03-01T11:14:27;11.40;32.50
30288;DHT22;17103;48.316;11.558;2023-03-01T11:17:06;11.50;32.40
30288;DHT22;17103;48.316;11.558;2023-03-01T11:19:37;11.50;32.20
30288;DHT22;17103;48.316;11.558;2023-03-01T11:22:11;11.60;32.50
30288;DHT22;17103;48.316;11.558;2023-03-01T11:24:41;11.70;32.40
30288;DHT22;17103;48.316;11.558;2023-03-01T11:27:22;11.90;32.40
30288;DHT22;17103;48.316;11.558;2023-03-01T11:30:12;11.80;32.30
30288;DHT22;17103;48.316;11.558;2023-03-01T11:32:45;11.90;32.50
30288;DHT22;17103;48.316;11.558;2023-03-01T11:35:18;12.00;32.50
30288;DHT22;17103;48.316;11.558;2023-03-01T11:43:26;12.20;32.20
30288;DHT22;17103;48.316;11.558;2023-03-01T11:49:09;12.30;32.20
30288;DHT22;17103;48.316;11.558;2023-03-01T12:00:23;12.70;32.70
30288;DHT22;17103;48.316;11.558;2023-03-01T12:02:58;12.80;32.90
30288;DHT22;17103;48.316;11.558;2023-03-01T12:22:16;13.40;32.70
30288;DHT22;17103;48.316;11.558;2023-03-01T12:31:00;13.70;33.20
30288;DHT22;17103;48.316;11.558;2023-03-01T12:47:07;14.30;32.80
30288;DHT22;17103;48.316;11.558;2023-03-01T12:49:55;14.40;32.40
30288;DHT22;17103;48.316;11.558;2023-03-01T12:54:58;14.70;32.70
30288;DHT22;17103;48.316;11.558;2023-03-01T12:57:46;14.80;32.40
30288;DHT22;17103;48.316;11.558;2023-03-01T13:00:30;14.90;32.00
30288;DHT22;17103;48.316;11.558;2023-03-01T13:08:58;15.20;32.50
30288;DHT22;17103;48.316;11.558;2023-03-01T13:11:26;15.30;32.30
30288;DHT22;17103;48.316;11.558;2023-03-01T13:13:52;15.40;32.90
30288;DHT22;17103;48.316;11.558;2023-03-01T13:16:41;15.50;32.50
30288;DHT22;17103;48.316;11.558;2023-03-01T13:21:45;15.70;32.30
30288;DHT22;17103;48.316;11.558;2023-03-01T13:29:53;16.00;31.90
30288;DHT22;17103;48.316;11.558;2023-03-01T13:32:25;16.20;32.00
30288;DHT22;17103;48.316;11.558;2023-03-01T13:37:42;16.40;31.50
30288;DHT22;17103;48.316;11.558;2023-03-01T13:42:44;16.60;31.40
30288;DHT22;17103;48.316;11.558;2023-03-01T13:45:25;16.60;31.50
30288;DHT22;17103;48.316;11.558;2023-03-01T13:48:21;16.80;31.30
30288;DHT22;17103;48.316;11.558;2023-03-01T13:50:51;16.90;31.40
30288;DHT22;17103;48.316;11.558;2023-03-01T13:53:19;17.10;31.60
30288;DHT22;17103;48.316;11.558;2023-03-01T13:55:50;17.20;31.50
30288;DHT22;17103;48.316;11.558;2023-03-01T13:58:28;17.30;31.60
30288;DHT22;17103;48.316;11.558;2023-03-01T14:03:22;17.50;31.60
30288;DHT22;17103;48.316;11.558;2023-03-01T14:06:09;17.60;31.60
30288;DHT22;17103;48.316;11.558;2023-03-01T14:08:37;17.70;31.40
30288;DHT22;17103;48.316;11.558;2023-03-01T14:19:17;18.10;30.80
30288;DHT22;17103;48.316;11.558;2023-03-01T14:21:44;18.20;30.80
30288;DHT22;17103;48.316;11.558;2023-03-01T14:24:21;18.20;30.90
30288;DHT22;17103;48.316;11.558;2023-03-01T14:26:51;18.30;30.10
30288;DHT22;17103;48.316;11.558;2023-03-01T14:29:25;18.40;30.70
30288;DHT22;17103;48.316;11.558;2023-03-01T14:31:52;18.40;30.10
30288;DHT22;17103;48.316;11.558;2023-03-01T14:34:26;18.50;30.40
30288;DHT22;17103;48.316;11.558;2023-03-01T14:36:52;18.60;30.10
30288;DHT22;17103;48.316;11.558;2023-03-01T14:39:22;18.60;30.20
30288;DHT22;17103;48.316;11.558;2023-03-01T14:41:49;18.60;30.00
30288;DHT22;17103;48.316;11.558;2023-03-01T14:44:19;18.70;30.10
30288;DHT22;17103;48.316;11.558;2023-03-01T14:46:52;18.70;30.00
30288;DHT22;17103;48.316;11.558;2023-03-01T14:49:22;18.70;30.00
30288;DHT22;17103;48.316;11.558;2023-03-01T14:52:04;18.80;30.00
30288;DHT22;17103;48.316;11.558;2023-03-01T14:55:18;18.80;29.80
30288;DHT22;17103;48.316;11.558;2023-03-01T14:57:28;18.80;30.30
30288;DHT22;17103;48.316;11.558;2023-03-01T14:59:57;18.80;30.30
30288;DHT22;17103;48.316;11.558;2023-03-01T15:02:25;18.90;30.00
30288;DHT22;17103;48.316;11.558;2023-03-01T15:04:54;18.90;30.00
30288;DHT22;17103;48.316;11.558;2023-03-01T15:07:25;19.10;30.40
30288;DHT22;17103;48.316;11.558;2023-03-01T15:09:51;19.10;30.50
30288;DHT22;17103;48.316;11.558;2023-03-01T15:14:58;19.00;30.00
30288;DHT22;17103;48.316;11.558;2023-03-01T15:17:37;19.00;30.70
30288;DHT22;17103;48.316;11.558;2023-03-01T15:20:06;19.00;30.40
30288;DHT22;17103;48.316;11.558;2023-03-01T15:22:32;19.10;31.00
30288;DHT22;17103;48.316;11.558;2023-03-01T15:24:58;19.20;30.80
30288;DHT22;17103;48.316;11.558;2023-03-01T15:27:25;19.20;30.70
30288;DHT22;17103;48.316;11.558;2023-03-01T15:29:56;19.30;30.90
30288;DHT22;17103;48.316;11.558;2023-03-01T15:32:32;19.40;30.60
30288;DHT22;17103;48.316;11.558;2023-03-01T15:34:59;19.50;30.70
30288;DHT22;17103;48.316;11.558;2023-03-01T15:37:39;19.70;30.70
30288;DHT22;17103;48.316;11.558;2023-03-01T15:40:25;19.80;29.80
30288;DHT22;17103;48.316;11.558;2023-03-01T15:43:01;19.80;29.60
30288;DHT22;17103;48.316;11.558;2023-03-01T15:45:29;19.80;30.00
30288;DHT22;17103;48.316;11.558;2023-03-01T15:47:57;19.80;30.40
30288;DHT22;17103;48.316;11.558;2023-03-01T15:50:28;19.90;30.10
30288;DHT22;17103;48.316;11.558;2023-03-01T15:52:55;20.00;30.30
30288;DHT22;17103;48.316;11.558;2023-03-01T15:55:24;20.00;30.00
30288;DHT22;17103;48.316;11.558;2023-03-01T16:00:28;20.10;29.80
30288;DHT22;17103;48.316;11.558;2023-03-01T16:02:54;20.20;30.20
30288;DHT22;17103;48.316;11.558;2023-03-01T16:07:48;20.20;29.90
30288;DHT22;17103;48.316;11.558;2023-03-01T16:10:15;20.30;29.80
30288;DHT22;17103;48.316;11.558;2023-03-01T16:12:41;20.30;29.60
30288;DHT22;17103;48.316;11.558;2023-03-01T16:15:31;20.30;29.60
30288;DHT22;17103;48.316;11.558;2023-03-01T16:17:57;20.30;29.10
30288;DHT22;17103;48.316;11.558;2023-03-01T16:20:27;20.30;29.60
30288;DHT22;17103;48.316;11.558;2023-03-01T16:22:53;20.40;29.40
30288;DHT22;17103;48.316;11.558;2023-03-01T16:25:20;20.40;29.30
30288;DHT22;17103;48.316;11.558;2023-03-01T16:27:48;20.30;29.00
30288;DHT22;17103;48.316;11.558;2023-03-01T16:30:15;20.20;28.90
30288;DHT22;17103;48.316;11.558;2023-03-01T16:32:43;20.20;28.80
30288;DHT22;17103;48.316;11.558;2023-03-01T16:35:11;20.10;28.70
30288;DHT22;17103;48.316;11.558;2023-03-01T16:37:38;20.00;28.70
30288;DHT22;17103;48.316;11.558;2023-03-01T16:40:04;19.90;28.70
30288;DHT22;17103;48.316;11.558;2023-03-01T16:42:35;19.80;28.50
30288;DHT22;17103;48.316;11.558;2023-03-01T16:45:02;19.60;28.30
30288;DHT22;17103;48.316;11.558;2023-03-01T16:47:28;19.50;28.40
30288;DHT22;17103;48.316;11.558;2023-03-01T16:49:54;19.30;28.30
30288;DHT22;17103;48.316;11.558;2023-03-01T16:52:20;19.20;28.30
30288;DHT22;17103;48.316;11.558;2023-03-01T16:54:46;18.90;28.20
30288;DHT22;17103;48.316;11.558;2023-03-01T16:57:12;18.80;28.30
30288;DHT22;17103;48.316;11.558;2023-03-01T16:59:38;18.60;28.30
30288;DHT22;17103;48.316;11.558;2023-03-01T17:02:04;18.40;28.30
30288;DHT22;17103;48.316;11.558;2023-03-01T17:04:31;18.10;28.20
30288;DHT22;17103;48.316;11.558;2023-03-01T17:06:58;18.10;28.20
30288;DHT22;17103;48.316;11.558;2023-03-01T17:09:24;17.90;28.10
30288;DHT22;17103;48.316;11.558;2023-03-01T17:11:50;17.70;28.10
30288;DHT22;17103;48.316;11.558;2023-03-01T17:14:16;17.50;28.10
30288;DHT22;17103;48.316;11.558;2023-03-01T17:16:43;17.30;28.00
30288;DHT22;17103;48.316;11.558;2023-03-01T17:19:09;17.20;28.10
30288;DHT22;17103;48.316;11.558;2023-03-01T17:21:36;17.00;28.20
30288;DHT22;17103;48.316;11.558;2023-03-01T17:24:02;16.80;28.00
30288;DHT22;17103;48.316;11.558;2023-03-01T17:26:29;16.60;28.00
30288;DHT22;17103;48.316;11.558;2023-03-01T17:28:55;16.40;28.00
30288;DHT22;17103;48.316;11.558;2023-03-01T17:31:22;16.20;28.10
30288;DHT22;17103;48.316;11.558;2023-03-01T17:33:49;16.00;28.10
30288;DHT22;17103;48.316;11.558;2023-03-01T17:36:15;15.80;28.10
30288;DHT22;17103;48.316;11.558;2023-03-01T17:38:42;15.60;28.20
30288;DHT22;17103;48.316;11.558;2023-03-01T17:41:08;15.50;28.30
30288;DHT22;17103;48.316;11.558;2023-03-01T17:43:36;15.30;28.30
30288;DHT22;17103;48.316;11.558;2023-03-01T17:46:04;15.10;28.30
30288;DHT22;17103;48.316;11.558;2023-03-01T17:48:57;15.00;28.40